Wetterdaten: Oktober 2013
Datum Temp Feuchte Luftdruck Regen Wind Richtung Sonnenschein UV Solar Windben
01.10.2013 7,8 C 74 % 1016,3 hPa 0,0 l/m 2,8 km/h O-SO 8,83 h 1,7 UV-I 315 W/m 8,9 km/h
02.10.2013 8,0 C 64 % 1021,5 hPa 0,0 l/m 7,6 km/h SO 8,75 h 1,6 UV-I 304 W/m 21,7 km/h
03.10.2013 9,0 C 59 % 1020,3 hPa 0,0 l/m 15,6 km/h SO 7,42 h 1,6 UV-I 279 W/m 30,2 km/h
04.10.2013 11,0 C 81 % 1017,6 hPa 0,0 l/m 6,3 km/h S-SO 0,50 h 0,9 UV-I 97 W/m 13,7 km/h
05.10.2013 12,9 C 98 % 1017,9 hPa 12,2 l/m 0,0 km/h S-SO 0,00 h 0,6 UV-I 46 W/m 0,0 km/h
06.10.2013 11,5 C 96 % 1025,3 hPa 0,2 l/m 0,0 km/h N 0,00 h 0,8 UV-I 79 W/m 0,0 km/h
07.10.2013 11,6 C 94 % 1026,2 hPa 0,0 l/m 0,0 km/h N 2,83 h 1,3 UV-I 162 W/m 0,0 km/h
08.10.2013 12,5 C 94 % 1023,9 hPa 0,0 l/m 0,0 km/h N 0,00 h 0,7 UV-I 65 W/m 0,0 km/h
09.10.2013 11,6 C 94 % 1013,6 hPa 5,6 l/m 1,7 km/h S 0,00 h 0,7 UV-I 61 W/m 5,2 km/h
10.10.2013 5,1 C 91 % 1008,2 hPa 7,4 l/m 0,1 km/h N-NW 3,42 h 1,2 UV-I 194 W/m 1,2 km/h
11.10.2013 6,4 C 98 % 1015,2 hPa 9,2 l/m 0,1 km/h SO 0,00 h 0,6 UV-I 34 W/m 0,8 km/h
12.10.2013 6,4 C 95 % 1017,0 hPa 4,0 l/m 0,0 km/h SO 2,08 h 0,9 UV-I 113 W/m 0,0 km/h
13.10.2013 6,5 C 89 % 1017,8 hPa 0,2 l/m 15,1 km/h S-SO 3,08 h 1,1 UV-I 185 W/m 27,0 km/h
14.10.2013 8,8 C 90 % 1014,8 hPa 0,0 l/m 11,5 km/h S-SO 4,92 h 1,2 UV-I 214 W/m 19,3 km/h
15.10.2013 8,7 C 95 % 1007,1 hPa 9,4 l/m 1,5 km/h S-SO 1,17 h 0,9 UV-I 113 W/m 9,7 km/h
16.10.2013 7,9 C 98 % 1012,3 hPa 1,2 l/m 4,0 km/h S-SO 0,00 h 0,0 UV-I 30 W/m 10,1 km/h
17.10.2013 11,7 C 87 % 1011,1 hPa 2,8 l/m 4,8 km/h S-SW 0,83 h 1,0 UV-I 99 W/m 22,9 km/h
18.10.2013 9,2 C 91 % 1018,5 hPa 0,0 l/m 4,3 km/h N-NW 2,67 h 1,1 UV-I 162 W/m 11,3 km/h
19.10.2013 12,3 C 87 % 1011,1 hPa 0,2 l/m 8,6 km/h S-SO 6,25 h 1,3 UV-I 220 W/m 12,1 km/h
20.10.2013 13,7 C 94 % 1011,8 hPa 0,0 l/m 0,4 km/h S 0,08 h 0,8 UV-I 104 W/m 1,6 km/h
21.10.2013 13,2 C 89 % 1013,5 hPa 0,4 l/m 7,5 km/h S 1,17 h 0,8 UV-I 118 W/m 13,7 km/h
22.10.2013 16,8 C 81 % 1007,1 hPa 0,0 l/m 8,5 km/h S-SO 5,42 h 1,2 UV-I 197 W/m 14,9 km/h
23.10.2013 15,2 C 86 % 1005,9 hPa 4,2 l/m 14,6 km/h S 1,67 h 1,0 UV-I 120 W/m 28,6 km/h
24.10.2013 10,2 C 90 % 1017,3 hPa 0,2 l/m 1,3 km/h S-SW 3,25 h 1,0 UV-I 163 W/m 6,1 km/h
25.10.2013 12,3 C 96 % 1013,0 hPa 1,4 l/m 9,8 km/h S-SO 0,75 h 0,7 UV-I 67 W/m 16,5 km/h
26.10.2013 15,8 C 89 % 1010,8 hPa 4,2 l/m 8,0 km/h S 3,75 h 1,0 UV-I 143 W/m 16,5 km/h
27.10.2013 12,6 C 84 % 1003,6 hPa 4,6 l/m 18,0 km/h S 2,25 h 0,9 UV-I 113 W/m 33,4 km/h
28.10.2013 12,8 C 77 % 999,7 hPa 3,6 l/m 19,7 km/h S 0,08 h 0,8 UV-I 65 W/m 37,8 km/h
29.10.2013 9,3 C 84 % 1011,8 hPa 2,0 l/m 11,5 km/h S 1,58 h 0,7 UV-I 96 W/m 21,7 km/h
30.10.2013 6,1 C 87 % 1023,3 hPa 0,0 l/m 3,5 km/h S-SW 2,00 h 0,7 UV-I 132 W/m 9,6 km/h
31.10.2013 5,9 C 87 % 1021,7 hPa 0,2 l/m 2,7 km/h S 6,83 h 1,0 UV-I 209 W/m 7,6 km/h
Min-Datum 31.10.13 03.10.13 28.10.13 20 Tage 01.10.13 - - - - 01.10.13
Min-Zeit 07:20 14:15 11:00 - 00:00 - - - - 00:00
Minimum 1,2 C 46 % 993,3 hPa - 0,0 km/h - - - - 0,0 km/h
Max-Datum 22.10.13 12.10.13 07.10.13 05.10.13 28.10.13 - 01.10.13 01.10.13 13.10.13 28.10.13
Max-Zeit 15:10 18:00 11:50 06:05 12:35 - 17:30 12:45 14:45 11:10
Maximum 20,5 C 100 % 1027,3 hPa 12,2 l/m 43,1 km/h
S
- 8,75 h 2,8 UV-I 605 W/m 67,6 km/h
S-SW
Durchschnitt 10,4 C 87 % 1014,7 hPa #73,2 l/m 6,1 km/h S #81:35 h 1,0 UV-I 139 W/m 13,0 km/h

Durchschnitt Minimum Temp.7,3 C
Durchschnitt Maximum Temp.13,9 C